Time;durP1;ratioP1;P1;durP2;ratioP2;P2;SDS_P1;SDS_P2;PMS_P1;PMS_P2;Temp;Humidity;BMP_temperature;BMP_pressure;BME280_temperature;BME280_humidity;BME280_pressure;Samples;Min_cycle;Max_cycle;Signal;HPM_P1;HPM_P2
2023/06/14 00:02:20;;;;;;;;;;;;;;;;;;5090702;28;19924;-82
2023/06/14 00:04:48;;;;;;;;;;;;;;;;;;5074048;28;20296;-83
2023/06/14 00:07:16;;;;;;;;;;;;;;;;;;5057019;28;19933;-83
2023/06/14 00:09:43;;;;;;;;;;;;;;;;;;5090260;28;19931;-83
2023/06/14 00:12:08;;;;;;;;;;;;;;;;;;5057333;28;19920;-82
2023/06/14 00:14:34;;;;;;;;;;;;;;;;;;5074050;28;19920;-83
2023/06/14 00:17:01;;;;;;;;;;;;;;;;;;5090420;28;19949;-83
2023/06/14 00:19:27;;;;;;;;;;;;;;;;;;5056653;28;19920;-83
2023/06/14 00:21:53;;;;;;;;;;;;;;;;;;5090372;28;19953;-83
2023/06/14 00:24:18;;;;;;;;;;;;;;;;;;5090631;28;20304;-82
2023/06/14 00:26:44;;;;;;;;;;;;;;;;;;5090463;28;19993;-83
2023/06/14 00:29:10;;;;;;;;;;;;;;;;;;5090351;28;19973;-82
2023/06/14 00:31:36;;;;;;;;;;;;;;;;;;5089772;28;19965;-82
2023/06/14 00:34:02;;;;;;;;;;;;;;;;;;5073657;28;20388;-83
2023/06/14 00:36:28;;;;;;;;;;;;;;;;;;5090685;28;20347;-82
2023/06/14 00:38:54;;;;;;;;;;;;;;;;;;5090333;28;19924;-82
2023/06/14 00:41:20;;;;;;;;;;;;;;;;;;5090228;28;20293;-83
2023/06/14 00:43:46;;;;;;;;;;;;;;;;;;5090540;28;19935;-83
2023/06/14 00:46:11;;;;;;;;;;;;;;;;;;5090307;28;20006;-82
2023/06/14 00:48:37;;;;;;;;;;;;;;;;;;5076739;28;19920;-83
2023/06/14 00:51:03;;;;;;;;;;;;;;;;;;5093180;28;19924;-83
2023/06/14 00:53:29;;;;;;;;;;;;;;;;;;5060129;28;19925;-83
2023/06/14 00:55:55;;;;;;;;;;;;;;;;;;5060307;28;19920;-82
2023/06/14 00:58:21;;;;;;;;;;;;;;;;;;5060271;28;19943;-83
2023/06/14 01:00:47;;;;;;;;;;;;;;;;;;5059944;28;19919;-83
2023/06/14 01:03:18;;;;;;;;;;;;;;;;;;5060103;28;19927;-83
2023/06/14 01:05:44;;;;;;;;;;;;;;;;;;5093621;28;19945;-83
2023/06/14 01:08:10;;;;;;;;;;;;;;;;;;5060075;28;19920;-83
2023/06/14 01:10:36;;;;;;;;;;;;;;;;;;5059193;28;20385;-83
2023/06/14 01:13:02;;;;;;;;;;;;;;;;;;5093740;28;19920;-82
2023/06/14 01:15:28;;;;;;;;;;;;;;;;;;5060053;28;19972;-82
2023/06/14 01:18:02;;;;;;;;;;;;;;;;;;5059841;28;19924;-83
2023/06/14 01:20:28;;;;;;;;;;;;;;;;;;5092860;28;19943;-82
2023/06/14 01:22:54;;;;;;;;;;;;;;;;;;5059728;28;19920;-82
2023/06/14 01:25:23;;;;;;;;;;;;;;;;;;5059536;28;19920;-82
2023/06/14 01:27:49;;;;;;;;;;;;;;;;;;5059363;28;20349;-82
2023/06/14 01:30:15;;;;;;;;;;;;;;;;;;5058924;28;19965;-83
2023/06/14 01:32:41;;;;;;;;;;;;;;;;;;5059562;28;20369;-82
2023/06/14 01:35:07;;;;;;;;;;;;;;;;;;5076179;28;19920;-82
2023/06/14 01:37:33;;;;;;;;;;;;;;;;;;5076117;28;20297;-82
2023/06/14 01:39:58;;;;;;;;;;;;;;;;;;5058695;28;20007;-82
2023/06/14 01:42:25;;;;;;;;;;;;;;;;;;5075763;28;20303;-82
2023/06/14 01:44:50;;;;;;;;;;;;;;;;;;5092966;28;19926;-82
2023/06/14 01:47:16;;;;;;;;;;;;;;;;;;5059291;28;19924;-82
2023/06/14 01:49:42;;;;;;;;;;;;;;;;;;5059499;28;20354;-82
2023/06/14 01:52:09;;;;;;;;;;;;;;;;;;5075924;28;19926;-82
2023/06/14 01:54:37;;;;;;;;;;;;;;;;;;5092899;28;19920;-83
2023/06/14 01:57:03;;;;;;;;;;;;;;;;;;5092541;28;20429;-82
2023/06/14 01:59:31;;;;;;;;;;;;;;;;;;5057782;28;20014;-82
2023/06/14 02:01:57;;;;;;;;;;;;;;;;;;5075503;28;19926;-83
2023/06/14 02:04:22;;;;;;;;;;;;;;;;;;5059203;28;20318;-84
2023/06/14 02:06:48;;;;;;;;;;;;;;;;;;5058905;28;19973;-83
2023/06/14 02:09:15;;;;;;;;;;;;;;;;;;5058510;28;19920;-83
2023/06/14 02:11:41;;;;;;;;;;;;;;;;;;5091773;28;19920;-83
2023/06/14 02:14:07;;;;;;;;;;;;;;;;;;5058695;28;19920;-83
2023/06/14 02:16:35;;;;;;;;;;;;;;;;;;5092242;28;20302;-83
2023/06/14 02:19:01;;;;;;;;;;;;;;;;;;5092142;28;20011;-83
2023/06/14 02:21:27;;;;;;;;;;;;;;;;;;5058501;28;20031;-83
2023/06/14 02:23:53;;;;;;;;;;;;;;;;;;5058686;28;19924;-83
2023/06/14 02:26:19;;;;;;;;;;;;;;;;;;5058241;28;19954;-83
2023/06/14 02:28:45;;;;;;;;;;;;;;;;;;5058274;28;19920;-83
2023/06/14 02:31:10;;;;;;;;;;;;;;;;;;5057875;28;19920;-83
2023/06/14 02:33:36;;;;;;;;;;;;;;;;;;5058411;28;19931;-83
2023/06/14 02:36:03;;;;;;;;;;;;;;;;;;5058328;28;19920;-83
2023/06/14 02:38:29;;;;;;;;;;;;;;;;;;5091736;28;19920;-83
2023/06/14 02:40:55;;;;;;;;;;;;;;;;;;5074246;28;19924;-83
2023/06/14 02:43:21;;;;;;;;;;;;;;;;;;5058526;28;19927;-82
2023/06/14 02:45:46;;;;;;;;;;;;;;;;;;5058002;28;19924;-82
2023/06/14 02:48:12;;;;;;;;;;;;;;;;;;5058399;28;20293;-83
2023/06/14 02:50:38;;;;;;;;;;;;;;;;;;5057616;28;19927;-83
2023/06/14 02:53:04;;;;;;;;;;;;;;;;;;5058109;28;20015;-83
2023/06/14 02:55:30;;;;;;;;;;;;;;;;;;5058381;28;20017;-83
2023/06/14 02:57:56;;;;;;;;;;;;;;;;;;5058007;28;20012;-82
2023/06/14 03:00:23;;;;;;;;;;;;;;;;;;5057732;28;19966;-82
2023/06/14 03:02:51;;;;;;;;;;;;;;;;;;5074924;28;19946;-82
2023/06/14 03:05:20;;;;;;;;;;;;;;;;;;5075091;28;19985;-82
2023/06/14 03:07:47;;;;;;;;;;;;;;;;;;5074789;28;19928;-82
2023/06/14 03:10:13;;;;;;;;;;;;;;;;;;5090945;28;19965;-83
2023/06/14 03:12:39;;;;;;;;;;;;;;;;;;5057761;28;19924;-82
2023/06/14 03:15:05;;;;;;;;;;;;;;;;;;5058173;28;19920;-82
2023/06/14 03:17:33;;;;;;;;;;;;;;;;;;5074947;28;19986;-82
2023/06/14 03:19:59;;;;;;;;;;;;;;;;;;5091597;28;20369;-82
2023/06/14 03:22:25;;;;;;;;;;;;;;;;;;5057947;28;19973;-82
2023/06/14 03:24:51;;;;;;;;;;;;;;;;;;5091287;28;19920;-82
2023/06/14 03:27:17;;;;;;;;;;;;;;;;;;5058066;28;19935;-82
2023/06/14 03:29:43;;;;;;;;;;;;;;;;;;5057741;28;19931;-83
2023/06/14 03:32:09;;;;;;;;;;;;;;;;;;5074783;28;19943;-82
2023/06/14 03:34:35;;;;;;;;;;;;;;;;;;5057994;28;19924;-82
2023/06/14 03:37:01;;;;;;;;;;;;;;;;;;5074423;28;20434;-82
2023/06/14 03:39:27;;;;;;;;;;;;;;;;;;5057262;28;20018;-82
2023/06/14 03:41:53;;;;;;;;;;;;;;;;;;5057427;28;20299;-82
2023/06/14 03:44:18;;;;;;;;;;;;;;;;;;5057732;28;19927;-83
2023/06/14 03:46:44;;;;;;;;;;;;;;;;;;5074291;28;19924;-81
2023/06/14 03:49:11;;;;;;;;;;;;;;;;;;5057918;28;19980;-82
2023/06/14 03:51:36;;;;;;;;;;;;;;;;;;5073745;28;19928;-82
2023/06/14 03:54:02;;;;;;;;;;;;;;;;;;5057578;28;19927;-82
2023/06/14 03:56:28;;;;;;;;;;;;;;;;;;5057161;28;20377;-82
2023/06/14 03:58:55;;;;;;;;;;;;;;;;;;5074413;28;20392;-82
2023/06/14 04:01:21;;;;;;;;;;;;;;;;;;5090638;28;20277;-82
2023/06/14 04:03:47;;;;;;;;;;;;;;;;;;5053163;28;19931;-82
2023/06/14 04:06:19;;;;;;;;;;;;;;;;;;5056399;28;20447;-82
2023/06/14 04:08:45;;;;;;;;;;;;;;;;;;5072869;28;19985;-83
2023/06/14 04:11:11;;;;;;;;;;;;;;;;;;5055740;28;19943;-82
2023/06/14 04:13:39;;;;;;;;;;;;;;;;;;5056109;28;19920;-82
2023/06/14 04:16:05;;;;;;;;;;;;;;;;;;5056403;28;19920;-82
2023/06/14 04:18:31;;;;;;;;;;;;;;;;;;5056237;28;19942;-82
2023/06/14 04:20:56;;;;;;;;;;;;;;;;;;5106706;28;19920;-82
2023/06/14 04:23:23;;;;;;;;;;;;;;;;;;5075844;28;19969;-82
2023/06/14 04:25:49;;;;;;;;;;;;;;;;;;5060168;28;19924;-81
2023/06/14 04:28:15;;;;;;;;;;;;;;;;;;5076744;28;19920;-82
2023/06/14 04:30:41;;;;;;;;;;;;;;;;;;5108114;27;19977;-82
2023/06/14 04:33:07;;;;;;;;;;;;;;;;;;5084595;28;20380;-82
2023/06/14 04:35:35;;;;;;;;;;;;;;;;;;5089726;28;20049;-82
2023/06/14 04:38:02;;;;;;;;;;;;;;;;;;5066346;28;19974;-83
2023/06/14 04:40:27;;;;;;;;;;;;;;;;;;5093780;28;19942;-82
2023/06/14 04:42:54;;;;;;;;;;;;;;;;;;5061948;28;20372;-82
2023/06/14 04:45:21;;;;;;;;;;;;;;;;;;5059457;28;19960;-83
2023/06/14 04:47:47;;;;;;;;;;;;;;;;;;5111446;28;19928;-82
2023/06/14 04:50:13;;;;;;;;;;;;;;;;;;5084079;28;20395;-83
2023/06/14 04:52:38;;;;;;;;;;;;;;;;;;5108940;28;19920;-83
2023/06/14 04:55:05;;;;;;;;;;;;;;;;;;5059145;28;19959;-84
2023/06/14 04:57:31;;;;;;;;;;;;;;;;;;5090926;28;20006;-84
2023/06/14 04:59:57;;;;;;;;;;;;;;;;;;5058761;28;20054;-83
2023/06/14 05:02:23;;;;;;;;;;;;;;;;;;5090212;28;19924;-83
2023/06/14 05:04:49;;;;;;;;;;;;;;;;;;5083770;28;20403;-84
2023/06/14 05:07:15;;;;;;;;;;;;;;;;;;5088603;28;19924;-83
2023/06/14 05:09:41;;;;;;;;;;;;;;;;;;5057926;28;19933;-84
2023/06/14 05:12:07;;;;;;;;;;;;;;;;;;5058302;28;19920;-83
2023/06/14 05:14:33;;;;;;;;;;;;;;;;;;5076340;28;19924;-83
2023/06/14 05:16:59;;;;;;;;;;;;;;;;;;5057490;28;19935;-83
2023/06/14 05:19:26;;;;;;;;;;;;;;;;;;5086165;28;19943;-84
2023/06/14 05:21:53;;;;;;;;;;;;;;;;;;5107825;28;19983;-84
2023/06/14 05:24:19;;;;;;;;;;;;;;;;;;5057899;28;19920;-84
2023/06/14 05:26:45;;;;;;;;;;;;;;;;;;5058013;28;20041;-83
2023/06/14 05:29:11;;;;;;;;;;;;;;;;;;5057744;28;20011;-83
2023/06/14 05:31:37;;;;;;;;;;;;;;;;;;5074101;28;20226;-84
2023/06/14 05:34:03;;;;;;;;;;;;;;;;;;5058147;28;20003;-84
2023/06/14 05:36:29;;;;;;;;;;;;;;;;;;5057938;28;20006;-84
2023/06/14 05:38:59;;;;;;;;;;;;;;;;;;5057815;28;20217;-83
2023/06/14 05:41:25;;;;;;;;;;;;;;;;;;5057080;28;20094;-83
2023/06/14 05:43:52;;;;;;;;;;;;;;;;;;5061354;28;19955;-83
2023/06/14 05:46:21;;;;;;;;;;;;;;;;;;5106965;28;19927;-84
2023/06/14 05:48:47;;;;;;;;;;;;;;;;;;5104200;28;20319;-84
2023/06/14 05:51:13;;;;;;;;;;;;;;;;;;5089950;28;19954;-83
2023/06/14 05:53:39;;;;;;;;;;;;;;;;;;5069148;28;19924;-83
2023/06/14 05:56:05;;;;;;;;;;;;;;;;;;5086792;28;19928;-82
2023/06/14 05:58:31;;;;;;;;;;;;;;;;;;5087241;28;20445;-83
2023/06/14 06:00:57;;;;;;;;;;;;;;;;;;5087701;28;19928;-85
2023/06/14 06:03:23;;;;;;;;;;;;;;;;;;5086968;28;19928;-84
2023/06/14 06:05:49;;;;;;;;;;;;;;;;;;5081648;28;19955;-84
2023/06/14 06:08:16;;;;;;;;;;;;;;;;;;5086011;28;19927;-85
2023/06/14 06:10:43;;;;;;;;;;;;;;;;;;5089806;28;19928;-86
2023/06/14 06:13:09;;;;;;;;;;;;;;;;;;5061842;28;19927;-86
2023/06/14 06:15:35;;;;;;;;;;;;;;;;;;5057330;28;20183;-87
2023/06/14 06:18:01;;;;;;;;;;;;;;;;;;5055487;28;19920;-87
2023/06/14 06:20:31;;;;;;;;;;;;;;;;;;5056607;28;20300;-86
2023/06/14 06:22:57;;;;;;;;;;;;;;;;;;5107289;28;19924;-87
2023/06/14 06:25:25;;;;;;;;;;;;;;;;;;5061296;28;19920;-85
2023/06/14 06:27:51;;;;;;;;;;;;;;;;;;5090205;28;19928;-85
2023/06/14 06:30:17;;;;;;;;;;;;;;;;;;5090989;28;20396;-84
2023/06/14 06:32:43;;;;;;;;;;;;;;;;;;5086610;28;19931;-83
2023/06/14 06:35:10;;;;;;;;;;;;;;;;;;5054201;28;19920;-85
2023/06/14 06:37:36;;;;;;;;;;;;;;;;;;5055912;28;19934;-87
2023/06/14 06:40:05;;;;;;;;;;;;;;;;;;5055139;28;20412;-86
2023/06/14 06:42:31;;;;;;;;;;;;;;;;;;5089118;28;19927;-86
2023/06/14 06:44:57;;;;;;;;;;;;;;;;;;5055895;28;19920;-86
2023/06/14 06:47:23;;;;;;;;;;;;;;;;;;5073410;28;19947;-85
2023/06/14 06:49:49;;;;;;;;;;;;;;;;;;5056630;28;19946;-87
2023/06/14 06:52:15;;;;;;;;;;;;;;;;;;5057688;28;19935;-86
2023/06/14 06:54:41;;;;;;;;;;;;;;;;;;5056731;28;20380;-86
2023/06/14 06:57:07;;;;;;;;;;;;;;;;;;5073740;28;20338;-87
2023/06/14 06:59:33;;;;;;;;;;;;;;;;;;5066187;28;19925;-85
2023/06/14 07:01:59;;;;;;;;;;;;;;;;;;5105465;28;19927;-87
2023/06/14 07:04:25;;;;;;;;;;;;;;;;;;5105781;28;19920;-85
2023/06/14 07:06:51;;;;;;;;;;;;;;;;;;5107720;28;19924;-86
2023/06/14 07:09:17;;;;;;;;;;;;;;;;;;5056016;28;20399;-84
2023/06/14 07:11:43;;;;;;;;;;;;;;;;;;5056212;28;19932;-84
2023/06/14 07:14:09;;;;;;;;;;;;;;;;;;5073342;28;19943;-88
2023/06/14 07:16:35;;;;;;;;;;;;;;;;;;5056329;28;20376;-88
2023/06/14 07:19:01;;;;;;;;;;;;;;;;;;5058111;28;19982;-89
2023/06/14 07:21:27;;;;;;;;;;;;;;;;;;5092781;28;19920;-89
2023/06/14 07:23:52;;;;;;;;;;;;;;;;;;5091133;28;19963;-90
2023/06/14 07:26:18;;;;;;;;;;;;;;;;;;5057338;28;19940;-93
2023/06/14 07:28:44;;;;;;;;;;;;;;;;;;5056758;28;19924;-86
2023/06/14 07:31:10;;;;;;;;;;;;;;;;;;5055089;28;19927;-84
2023/06/14 07:33:36;;;;;;;;;;;;;;;;;;5056172;28;19942;-83
2023/06/14 07:36:02;;;;;;;;;;;;;;;;;;5072641;28;19920;-83
2023/06/14 07:38:28;;;;;;;;;;;;;;;;;;5072475;28;20296;-85
2023/06/14 07:40:54;;;;;;;;;;;;;;;;;;5055330;28;20385;-86
2023/06/14 07:43:20;;;;;;;;;;;;;;;;;;5088559;28;19927;-85
2023/06/14 07:45:46;;;;;;;;;;;;;;;;;;5056071;28;20281;-91
2023/06/14 07:48:12;;;;;;;;;;;;;;;;;;5058525;28;19977;-89
2023/06/14 07:50:38;;;;;;;;;;;;;;;;;;5058107;28;20493;-87
2023/06/14 07:53:04;;;;;;;;;;;;;;;;;;5058256;28;19924;-93
2023/06/14 07:55:32;;;;;;;;;;;;;;;;;;5059050;28;19930;-89
2023/06/14 07:57:58;;;;;;;;;;;;;;;;;;5078802;28;19927;-88
2023/06/14 08:00:24;;;;;;;;;;;;;;;;;;5062082;28;19924;-86
2023/06/14 08:02:51;;;;;;;;;;;;;;;;;;5062226;28;19928;-89
2023/06/14 08:05:17;;;;;;;;;;;;;;;;;;5062910;28;19920;-90
2023/06/14 08:07:43;;;;;;;;;;;;;;;;;;5062319;28;20304;-90
2023/06/14 08:10:09;;;;;;;;;;;;;;;;;;5096123;28;19920;-92
2023/06/14 08:12:35;;;;;;;;;;;;;;;;;;5096728;28;20429;-91
2023/06/14 08:15:01;;;;;;;;;;;;;;;;;;5112438;28;20010;-82
2023/06/14 08:17:27;;;;;;;;;;;;;;;;;;5059419;28;20046;-82
2023/06/14 08:19:57;;;;;;;;;;;;;;;;;;5059081;28;19927;-84
2023/06/14 08:22:24;;;;;;;;;;;;;;;;;;5109859;28;19923;-89
2023/06/14 08:24:50;;;;;;;;;;;;;;;;;;5093072;28;20007;-87
2023/06/14 08:27:16;;;;;;;;;;;;;;;;;;5059115;28;20073;-86
2023/06/14 08:29:42;;;;;;;;;;;;;;;;;;5059295;28;20393;-86
2023/06/14 08:32:08;;;;;;;;;;;;;;;;;;5059246;28;19978;-88
2023/06/14 08:34:34;;;;;;;;;;;;;;;;;;5076054;28;19924;-89
2023/06/14 08:37:00;;;;;;;;;;;;;;;;;;5059608;28;19934;-88
2023/06/14 08:39:26;;;;;;;;;;;;;;;;;;5061200;28;19963;-89
2023/06/14 08:41:52;;;;;;;;;;;;;;;;;;5059431;28;19920;-87
2023/06/14 08:44:18;;;;;;;;;;;;;;;;;;5075709;28;19928;-87
2023/06/14 08:46:43;;;;;;;;;;;;;;;;;;5058936;28;19935;-83
2023/06/14 08:49:09;;;;;;;;;;;;;;;;;;5058487;28;20450;-84
2023/06/14 08:51:36;;;;;;;;;;;;;;;;;;5058304;28;20290;-83
2023/06/14 08:54:03;;;;;;;;;;;;;;;;;;5059129;28;19927;-84
2023/06/14 08:56:29;;;;;;;;;;;;;;;;;;5060598;28;20332;-84
2023/06/14 08:58:56;;;;;;;;;;;;;;;;;;5059154;28;20009;-81
2023/06/14 09:01:23;;;;;;;;;;;;;;;;;;5057971;28;20349;-84
2023/06/14 09:03:48;;;;;;;;;;;;;;;;;;5092104;28;19926;-83
2023/06/14 09:06:15;;;;;;;;;;;;;;;;;;5058073;28;19928;-83
2023/06/14 09:08:41;;;;;;;;;;;;;;;;;;5092036;28;19963;-84
2023/06/14 09:11:07;;;;;;;;;;;;;;;;;;5057475;28;20304;-85
2023/06/14 09:13:33;;;;;;;;;;;;;;;;;;5057979;28;19924;-83
2023/06/14 09:16:00;;;;;;;;;;;;;;;;;;5109216;28;20358;-87
2023/06/14 09:18:25;;;;;;;;;;;;;;;;;;5058772;28;19920;-88
2023/06/14 09:20:51;;;;;;;;;;;;;;;;;;5058352;28;19927;-88
2023/06/14 09:23:17;;;;;;;;;;;;;;;;;;5058489;28;19931;-88
2023/06/14 09:25:43;;;;;;;;;;;;;;;;;;5075386;28;20277;-88
2023/06/14 09:28:10;;;;;;;;;;;;;;;;;;5091564;28;19966;-88
2023/06/14 09:30:36;;;;;;;;;;;;;;;;;;5108784;28;19988;-89
2023/06/14 09:33:01;;;;;;;;;;;;;;;;;;5057895;28;20409;-89
2023/06/14 09:35:30;;;;;;;;;;;;;;;;;;5058276;28;20023;-85
2023/06/14 09:37:56;;;;;;;;;;;;;;;;;;5057835;28;19920;-86
2023/06/14 09:40:22;;;;;;;;;;;;;;;;;;5107959;28;20003;-85
2023/06/14 09:42:49;;;;;;;;;;;;;;;;;;5058125;28;20277;-84
2023/06/14 09:45:19;;;;;;;;;;;;;;;;;;5058088;28;19927;-83
2023/06/14 09:47:45;;;;;;;;;;;;;;;;;;5057401;28;19935;-83
2023/06/14 09:50:11;;;;;;;;;;;;;;;;;;5057138;28;19920;-83
2023/06/14 09:52:37;;;;;;;;;;;;;;;;;;5057538;28;19970;-83
2023/06/14 09:55:03;;;;;;;;;;;;;;;;;;5108037;28;19920;-84
2023/06/14 09:57:31;;;;;;;;;;;;;;;;;;5057219;28;20410;-84
2023/06/14 10:00:00;;;;;;;;;;;;;;;;;;5107619;28;20342;-83
2023/06/14 10:02:26;;;;;;;;;;;;;;;;;;5057292;28;19967;-84
2023/06/14 10:04:52;;;;;;;;;;;;;;;;;;5108431;28;19990;-85
2023/06/14 10:07:18;;;;;;;;;;;;;;;;;;5056386;28;20392;-84
2023/06/14 10:09:48;;;;;;;;;;;;;;;;;;5055934;28;19927;-85
2023/06/14 10:12:20;;;;;;;;;;;;;;;;;;5107753;28;20299;-85
2023/06/14 10:14:46;;;;;;;;;;;;;;;;;;5057485;28;19920;-84
2023/06/14 10:17:12;;;;;;;;;;;;;;;;;;5057134;28;19935;-85
2023/06/14 10:19:38;;;;;;;;;;;;;;;;;;5056250;28;20372;-84
2023/06/14 10:22:04;;;;;;;;;;;;;;;;;;5056969;28;19976;-85
2023/06/14 10:24:29;;;;;;;;;;;;;;;;;;5056561;28;19945;-85
2023/06/14 10:26:55;;;;;;;;;;;;;;;;;;5057250;28;19924;-84
2023/06/14 10:29:21;;;;;;;;;;;;;;;;;;5056509;28;19927;-84
2023/06/14 10:31:47;;;;;;;;;;;;;;;;;;5057164;28;20293;-84
2023/06/14 10:34:13;;;;;;;;;;;;;;;;;;5056950;28;19969;-85
2023/06/14 10:36:40;;;;;;;;;;;;;;;;;;5057300;28;19928;-85
2023/06/14 10:39:06;;;;;;;;;;;;;;;;;;5056883;28;20015;-84
2023/06/14 10:41:33;;;;;;;;;;;;;;;;;;5056476;28;19981;-84
2023/06/14 10:43:59;;;;;;;;;;;;;;;;;;5090458;28;20388;-84
2023/06/14 10:46:24;;;;;;;;;;;;;;;;;;5073440;28;19935;-84
2023/06/14 10:48:50;;;;;;;;;;;;;;;;;;5056839;28;20408;-85
2023/06/14 10:51:20;;;;;;;;;;;;;;;;;;5056118;28;19920;-84
2023/06/14 10:53:45;;;;;;;;;;;;;;;;;;5090478;28;19921;-84
2023/06/14 10:56:11;;;;;;;;;;;;;;;;;;5090020;28;19920;-84
2023/06/14 10:58:37;;;;;;;;;;;;;;;;;;5107698;28;20288;-84
2023/06/14 11:01:03;;;;;;;;;;;;;;;;;;5055903;28;19963;-84
2023/06/14 11:03:29;;;;;;;;;;;;;;;;;;5073296;28;19928;-84
2023/06/14 11:05:55;;;;;;;;;;;;;;;;;;5056513;28;20420;-85
2023/06/14 11:08:21;;;;;;;;;;;;;;;;;;5071684;28;20049;-84
2023/06/14 11:10:47;;;;;;;;;;;;;;;;;;5055670;28;20384;-84
2023/06/14 11:13:13;;;;;;;;;;;;;;;;;;5055671;28;19927;-84
2023/06/14 11:15:39;;;;;;;;;;;;;;;;;;5056024;28;20312;-85
2023/06/14 11:18:05;;;;;;;;;;;;;;;;;;5073041;28;19940;-88
2023/06/14 11:20:31;;;;;;;;;;;;;;;;;;5055840;28;20326;-89
2023/06/14 11:22:56;;;;;;;;;;;;;;;;;;5056436;28;20404;-87
2023/06/14 11:25:23;;;;;;;;;;;;;;;;;;5055917;28;19926;-88
2023/06/14 11:27:49;;;;;;;;;;;;;;;;;;5072937;28;19928;-87
2023/06/14 11:30:15;;;;;;;;;;;;;;;;;;5055353;28;19931;-88
2023/06/14 11:32:41;;;;;;;;;;;;;;;;;;5056394;28;19920;-89
2023/06/14 11:35:07;;;;;;;;;;;;;;;;;;5056325;28;19946;-88
2023/06/14 11:37:33;;;;;;;;;;;;;;;;;;5056262;28;19920;-87
2023/06/14 11:39:59;;;;;;;;;;;;;;;;;;5055291;28;20396;-87
2023/06/14 11:42:25;;;;;;;;;;;;;;;;;;5055886;28;19924;-89
2023/06/14 11:44:51;;;;;;;;;;;;;;;;;;5106966;28;20342;-90
2023/06/14 11:47:17;;;;;;;;;;;;;;;;;;5056128;28;19934;-86
2023/06/14 11:49:43;;;;;;;;;;;;;;;;;;5055839;28;20331;-89
2023/06/14 11:52:09;;;;;;;;;;;;;;;;;;5056795;28;19920;-87
2023/06/14 11:54:35;;;;;;;;;;;;;;;;;;5056181;28;19924;-89
2023/06/14 11:57:01;;;;;;;;;;;;;;;;;;5072451;28;19920;-89
2023/06/14 11:59:28;;;;;;;;;;;;;;;;;;5073507;28;19920;-88
2023/06/14 12:01:54;;;;;;;;;;;;;;;;;;5057637;28;19920;-89
2023/06/14 12:04:36;;;;;;;;;;;;;;;;;;5080353;28;20384;-88
2023/06/14 12:07:03;;;;;;;;;;;;;;;;;;5091460;28;19931;-89
2023/06/14 12:09:29;;;;;;;;;;;;;;;;;;5108571;28;20292;-88
2023/06/14 12:11:55;;;;;;;;;;;;;;;;;;5108740;28;19927;-88
2023/06/14 12:14:22;;;;;;;;;;;;;;;;;;5108694;28;19927;-89
2023/06/14 12:16:48;;;;;;;;;;;;;;;;;;5086543;28;20429;-88
2023/06/14 12:19:14;;;;;;;;;;;;;;;;;;5058009;28;19924;-86
2023/06/14 12:21:44;;;;;;;;;;;;;;;;;;5107611;28;19924;-87
2023/06/14 12:24:12;;;;;;;;;;;;;;;;;;5091136;28;20407;-87
2023/06/14 12:26:37;;;;;;;;;;;;;;;;;;5073574;28;19924;-84
2023/06/14 12:29:03;;;;;;;;;;;;;;;;;;5108021;28;20335;-88
2023/06/14 12:31:29;;;;;;;;;;;;;;;;;;5091060;28;19920;-90
2023/06/14 12:33:55;;;;;;;;;;;;;;;;;;5090904;28;19946;-87
2023/06/14 12:36:21;;;;;;;;;;;;;;;;;;5107458;28;19986;-85
2023/06/14 12:38:47;;;;;;;;;;;;;;;;;;5083366;28;19972;-85
2023/06/14 12:41:14;;;;;;;;;;;;;;;;;;5057228;28;20440;-88
2023/06/14 12:43:40;;;;;;;;;;;;;;;;;;5059781;28;19927;-87
2023/06/14 12:46:06;;;;;;;;;;;;;;;;;;5077629;28;20299;-86
2023/06/14 12:48:32;;;;;;;;;;;;;;;;;;5061232;28;19920;-85
2023/06/14 12:50:58;;;;;;;;;;;;;;;;;;5060505;28;19968;-85
2023/06/14 12:53:24;;;;;;;;;;;;;;;;;;5060927;28;19927;-87
2023/06/14 12:55:50;;;;;;;;;;;;;;;;;;5060893;28;19924;-84
2023/06/14 12:58:17;;;;;;;;;;;;;;;;;;5094376;28;20490;-86
2023/06/14 13:00:42;;;;;;;;;;;;;;;;;;5077402;28;19920;-86
2023/06/14 13:03:08;;;;;;;;;;;;;;;;;;5094234;28;20293;-87
2023/06/14 13:05:34;;;;;;;;;;;;;;;;;;5093911;28;19928;-87
2023/06/14 13:08:00;;;;;;;;;;;;;;;;;;5094120;28;20376;-87
2023/06/14 13:10:27;;;;;;;;;;;;;;;;;;5094221;28;19920;-88
2023/06/14 13:12:53;;;;;;;;;;;;;;;;;;5094327;28;19931;-88
2023/06/14 13:15:19;;;;;;;;;;;;;;;;;;5094052;28;19920;-88
2023/06/14 13:17:48;;;;;;;;;;;;;;;;;;5060740;28;20319;-87
2023/06/14 13:20:16;;;;;;;;;;;;;;;;;;5077302;28;19927;-89
2023/06/14 13:22:42;;;;;;;;;;;;;;;;;;5060496;28;19920;-88
2023/06/14 13:25:08;;;;;;;;;;;;;;;;;;5060749;28;19924;-88
2023/06/14 13:27:34;;;;;;;;;;;;;;;;;;5060624;28;19931;-88
2023/06/14 13:30:00;;;;;;;;;;;;;;;;;;5076917;28;19927;-88
2023/06/14 13:32:26;;;;;;;;;;;;;;;;;;5111560;28;19920;-91
2023/06/14 13:34:52;;;;;;;;;;;;;;;;;;5093771;28;19930;-88
2023/06/14 13:37:18;;;;;;;;;;;;;;;;;;5093857;28;20384;-87
2023/06/14 13:39:44;;;;;;;;;;;;;;;;;;5059651;28;19979;-88
2023/06/14 13:42:10;;;;;;;;;;;;;;;;;;5060099;28;19972;-86
2023/06/14 13:44:36;;;;;;;;;;;;;;;;;;5060353;28;20369;-85
2023/06/14 13:47:02;;;;;;;;;;;;;;;;;;5060012;28;19931;-86
2023/06/14 13:49:28;;;;;;;;;;;;;;;;;;5059842;28;19943;-88
2023/06/14 13:51:54;;;;;;;;;;;;;;;;;;5110062;28;19966;-87
2023/06/14 13:54:20;;;;;;;;;;;;;;;;;;5056725;28;20049;-87
2023/06/14 13:56:46;;;;;;;;;;;;;;;;;;5074379;28;19920;-86
2023/06/14 13:59:12;;;;;;;;;;;;;;;;;;5107231;28;19954;-88
2023/06/14 14:01:38;;;;;;;;;;;;;;;;;;5055792;28;20405;-90
2023/06/14 14:04:04;;;;;;;;;;;;;;;;;;5057732;28;20403;-88
2023/06/14 14:06:30;;;;;;;;;;;;;;;;;;5054258;28;19928;-87
2023/06/14 14:08:56;;;;;;;;;;;;;;;;;;5106997;28;19926;-87
2023/06/14 14:11:22;;;;;;;;;;;;;;;;;;5071688;28;20397;-88
2023/06/14 14:13:48;;;;;;;;;;;;;;;;;;5056436;28;19924;-87
2023/06/14 14:16:14;;;;;;;;;;;;;;;;;;5058669;28;19923;-89
2023/06/14 14:18:40;;;;;;;;;;;;;;;;;;5058456;28;20408;-88
2023/06/14 14:21:06;;;;;;;;;;;;;;;;;;5083484;28;20345;-87
2023/06/14 14:23:32;;;;;;;;;;;;;;;;;;5066833;28;19920;-87
2023/06/14 14:25:58;;;;;;;;;;;;;;;;;;5070135;28;20320;-88
2023/06/14 14:28:24;;;;;;;;;;;;;;;;;;5085242;28;19969;-87
2023/06/14 14:30:50;;;;;;;;;;;;;;;;;;5077127;28;19967;-88
2023/06/14 14:33:16;;;;;;;;;;;;;;;;;;5097033;28;19954;-86
2023/06/14 14:35:42;;;;;;;;;;;;;;;;;;5094624;28;19930;-87
2023/06/14 14:38:08;;;;;;;;;;;;;;;;;;5062765;28;19924;-87
2023/06/14 14:40:34;;;;;;;;;;;;;;;;;;5062597;28;19967;-87
2023/06/14 14:43:00;;;;;;;;;;;;;;;;;;5097426;28;19927;-86
2023/06/14 14:45:26;;;;;;;;;;;;;;;;;;5059311;28;20284;-86
2023/06/14 14:47:52;;;;;;;;;;;;;;;;;;5095135;28;19928;-89
2023/06/14 14:50:18;;;;;;;;;;;;;;;;;;5060455;28;19967;-87
2023/06/14 14:52:45;;;;;;;;;;;;;;;;;;5102066;28;19928;-89
2023/06/14 14:55:11;;;;;;;;;;;;;;;;;;5065356;28;19972;-88
2023/06/14 14:57:37;;;;;;;;;;;;;;;;;;5065795;28;20404;-87
2023/06/14 15:00:03;;;;;;;;;;;;;;;;;;5099023;28;20005;-89
2023/06/14 15:02:29;;;;;;;;;;;;;;;;;;5062602;28;19924;-87
2023/06/14 15:05:00;;;;;;;;;;;;;;;;;;5059390;28;19924;-88
2023/06/14 15:07:26;;;;;;;;;;;;;;;;;;5078763;28;20023;-89
2023/06/14 15:09:52;;;;;;;;;;;;;;;;;;5099530;28;19984;-89
2023/06/14 15:12:19;;;;;;;;;;;;;;;;;;5096586;28;19920;-90
2023/06/14 15:14:45;;;;;;;;;;;;;;;;;;5061881;28;19955;-88
2023/06/14 15:17:11;;;;;;;;;;;;;;;;;;5081207;28;19985;-88
2023/06/14 15:19:37;;;;;;;;;;;;;;;;;;5062019;28;19932;-88
2023/06/14 15:22:03;;;;;;;;;;;;;;;;;;5109978;27;20292;-88
2023/06/14 15:24:30;;;;;;;;;;;;;;;;;;5087912;28;20287;-87
2023/06/14 15:27:24;;;;;;;;;;;;;;;;;;4990294;28;20459;-88
2023/06/14 15:29:50;;;;;;;;;;;;;;;;;;4979229;28;19930;-91
2023/06/14 15:32:16;;;;;;;;;;;;;;;;;;5089767;28;20269;-90
2023/06/14 15:34:42;;;;;;;;;;;;;;;;;;5105892;28;20014;-89
2023/06/14 15:37:08;;;;;;;;;;;;;;;;;;5106629;28;19935;-89
2023/06/14 15:39:34;;;;;;;;;;;;;;;;;;5055738;28;20361;-90
2023/06/14 15:42:00;;;;;;;;;;;;;;;;;;5056030;28;19935;-89
2023/06/14 15:44:26;;;;;;;;;;;;;;;;;;5090656;28;19959;-90
2023/06/14 15:46:52;;;;;;;;;;;;;;;;;;5063623;28;20192;-90
2023/06/14 15:49:19;;;;;;;;;;;;;;;;;;5088881;28;20440;-90
2023/06/14 15:51:45;;;;;;;;;;;;;;;;;;5067227;28;19924;-90
2023/06/14 15:54:11;;;;;;;;;;;;;;;;;;5067701;28;20011;-91
2023/06/14 15:56:36;;;;;;;;;;;;;;;;;;5060193;28;19920;-89
2023/06/14 15:59:02;;;;;;;;;;;;;;;;;;5056737;28;19931;-90
2023/06/14 16:01:28;;;;;;;;;;;;;;;;;;5060240;28;20269;-87
2023/06/14 16:03:56;;;;;;;;;;;;;;;;;;5086437;28;19928;-88
2023/06/14 16:06:22;;;;;;;;;;;;;;;;;;5055128;28;19928;-87
2023/06/14 16:08:47;;;;;;;;;;;;;;;;;;5088290;28;20369;-89
2023/06/14 16:11:13;;;;;;;;;;;;;;;;;;5088923;28;19924;-89
2023/06/14 16:13:39;;;;;;;;;;;;;;;;;;5056207;28;19943;-89
2023/06/14 16:16:05;;;;;;;;;;;;;;;;;;5050670;28;19935;-88
2023/06/14 16:18:31;;;;;;;;;;;;;;;;;;5073821;28;19920;-89
2023/06/14 16:20:57;;;;;;;;;;;;;;;;;;5058833;28;20007;-90
2023/06/14 16:23:23;;;;;;;;;;;;;;;;;;5109891;28;20311;-89
2023/06/14 16:25:49;;;;;;;;;;;;;;;;;;5091254;28;19927;-86
2023/06/14 16:28:15;;;;;;;;;;;;;;;;;;5076526;28;20362;-87
2023/06/14 16:30:40;;;;;;;;;;;;;;;;;;5090650;28;20404;-87
2023/06/14 16:33:06;;;;;;;;;;;;;;;;;;5058977;28;19920;-87
2023/06/14 16:35:32;;;;;;;;;;;;;;;;;;5058960;28;19920;-86
2023/06/14 16:37:58;;;;;;;;;;;;;;;;;;5057639;28;19942;-86
2023/06/14 16:40:24;;;;;;;;;;;;;;;;;;5091933;28;19924;-87